Time,TemperatureF,DewpointF,PressureIn,WindDirection,WindDirectionDegrees,WindSpeedMPH,WindSpeedGustMPH,Humidity,HourlyPrecipIn,Conditions,Clouds,dailyrainin,SoftwareType,DateUTC
2013-06-23 00:02:00,93.0,-99.9,-100.00,WNW,283,1.0,3.0,-999,-99.99,,,-99.99,,2013-06-23 06:02:00,
2013-06-23 01:10:00,92.0,-99.9,-100.00,SSE,159,0.0,1.0,-999,-99.99,,,-99.99,,2013-06-23 07:10:00,
2013-06-23 01:54:00,92.0,-99.9,-100.00,SSE,159,0.0,1.0,-999,-99.99,,,-99.99,,2013-06-23 07:54:00,
2013-06-23 02:02:00,92.0,-99.9,-100.00,SSE,159,0.0,1.0,-999,-99.99,,,-99.99,,2013-06-23 08:02:00,
2013-06-23 02:40:00,84.0,-99.9,-100.00,SW,223,4.0,6.0,-999,-99.99,,,-99.99,,2013-06-23 08:40:00,
2013-06-23 02:43:00,87.0,-99.9,-100.00,SW,227,4.0,7.0,-999,-99.99,,,-99.99,,2013-06-23 08:43:00,
2013-06-23 02:53:00,87.0,-99.9,-100.00,SW,227,4.0,7.0,-999,-99.99,,,-99.99,,2013-06-23 08:53:00,
2013-06-23 03:34:00,84.0,-99.9,-100.00,SW,223,4.0,6.0,-999,-99.99,,,-99.99,,2013-06-23 09:34:00,
2013-06-23 04:43:00,83.0,-99.9,-100.00,SW,222,5.0,6.0,-999,-99.99,,,-99.99,,2013-06-23 10:43:00,
2013-06-23 06:40:00,80.0,-99.9,-100.00,SW,226,4.0,6.0,-999,-99.99,,,-99.99,,2013-06-23 12:40:00,
2013-06-23 06:43:00,80.0,-99.9,-100.00,SSW,202,2.0,4.0,-999,-99.99,,,-99.99,,2013-06-23 12:43:00,
2013-06-23 07:34:00,80.0,-99.9,-100.00,SW,226,4.0,6.0,-999,-99.99,,,-99.99,,2013-06-23 13:34:00,
2013-06-23 08:11:00,83.0,-99.9,-100.00,ENE,63,2.0,4.0,-999,-99.99,,,-99.99,,2013-06-23 14:11:00,
2013-06-23 08:20:00,93.0,-99.9,-100.00,SSW,195,3.0,7.0,-999,-99.99,,,-99.99,,2013-06-23 14:20:00,
2013-06-23 09:00:00,92.0,-99.9,-100.00,WSW,244,2.0,4.0,-999,-99.99,,,-99.99,,2013-06-23 15:00:00,
2013-06-23 09:53:00,92.0,-99.9,-100.00,WSW,244,2.0,4.0,-999,-99.99,,,-99.99,,2013-06-23 15:53:00,
2013-06-23 10:00:00,94.0,-99.9,-100.00,WNW,300,5.0,7.0,-999,-99.99,,,-99.99,,2013-06-23 16:00:00,
2013-06-23 10:53:00,94.0,-99.9,-100.00,WNW,300,5.0,7.0,-999,-99.99,,,-99.99,,2013-06-23 16:53:00,
2013-06-23 11:40:00,98.0,-99.9,-100.00,WNW,288,1.0,4.0,-999,-99.99,,,-99.99,,2013-06-23 17:40:00,
2013-06-23 12:22:00,98.0,-99.9,-100.00,WNW,288,1.0,4.0,-999,-99.99,,,-99.99,,2013-06-23 18:22:00,
2013-06-23 12:34:00,98.0,-99.9,-100.00,WNW,288,1.0,4.0,-999,-99.99,,,-99.99,,2013-06-23 18:34:00,
2013-06-23 13:40:00,100.0,-99.9,-100.00,WNW,283,7.0,8.0,-999,-99.99,,,-99.99,,2013-06-23 19:40:00,
2013-06-23 14:10:00,103.0,-99.9,-100.00,WNW,292,4.0,6.0,-999,-99.99,,,-99.99,,2013-06-23 20:10:00,
2013-06-23 14:24:00,100.0,-99.9,-100.00,WNW,283,7.0,8.0,-999,-99.99,,,-99.99,,2013-06-23 20:24:00,
2013-06-23 14:34:00,100.0,-99.9,-100.00,WNW,283,7.0,8.0,-999,-99.99,,,-99.99,,2013-06-23 20:34:00,
2013-06-23 14:53:00,103.0,-99.9,-100.00,WNW,292,4.0,6.0,-999,-99.99,,,-99.99,,2013-06-23 20:53:00,
2013-06-23 15:00:00,102.0,-99.9,-100.00,SW,230,6.0,8.0,-999,-99.99,,,-99.99,,2013-06-23 21:00:00,
2013-06-23 15:01:00,103.0,-99.9,-100.00,WNW,292,4.0,6.0,-999,-99.99,,,-99.99,,2013-06-23 21:01:00,
2013-06-23 15:52:00,102.0,-99.9,-100.00,SW,230,6.0,8.0,-999,-99.99,,,-99.99,,2013-06-23 21:52:00,
2013-06-23 17:33:00,103.0,-99.9,-100.00,North,11,3.0,3.0,-999,-99.99,,,-99.99,,2013-06-23 23:33:00,
2013-06-23 18:33:00,103.0,-99.9,-100.00,WSW,242,4.0,8.0,-999,-99.99,,,-99.99,,2013-06-24 00:33:00,
2013-06-23 19:22:00,103.0,-99.9,-100.00,ENE,71,3.0,5.0,-999,-99.99,,,-99.99,,2013-06-24 01:22:00,
2013-06-23 19:32:00,103.0,-99.9,-100.00,ENE,71,3.0,5.0,-999,-99.99,,,-99.99,,2013-06-24 01:32:00,
2013-06-23 19:42:00,103.0,-99.9,-100.00,ENE,71,3.0,5.0,-999,-99.99,,,-99.99,,2013-06-24 01:42:00,
2013-06-23 20:10:00,98.0,-99.9,-100.00,NE,47,4.0,4.0,-999,-99.99,,,-99.99,,2013-06-24 02:10:00,
2013-06-23 20:53:00,98.0,-99.9,-100.00,NE,47,4.0,4.0,-999,-99.99,,,-99.99,,2013-06-24 02:53:00,
2013-06-23 21:01:00,98.0,-99.9,-100.00,NE,47,4.0,4.0,-999,-99.99,,,-99.99,,2013-06-24 03:01:00,
2013-06-23 21:10:00,95.0,-99.9,-100.00,NE,55,4.0,6.0,-999,-99.99,,,-99.99,,2013-06-24 03:10:00,
2013-06-23 21:53:00,95.0,-99.9,-100.00,NE,55,4.0,6.0,-999,-99.99,,,-99.99,,2013-06-24 03:53:00,
2013-06-23 22:02:00,95.0,-99.9,-100.00,NE,55,4.0,6.0,-999,-99.99,,,-99.99,,2013-06-24 04:02:00,
2013-06-23 22:55:00,93.0,-99.9,-100.00,WSW,243,1.0,1.0,-999,-99.99,,,-99.99,,2013-06-24 04:55:00,
2013-06-23 23:49:00,93.0,-99.9,-100.00,WSW,243,1.0,1.0,-999,-99.99,,,-99.99,,2013-06-24 05:49:00,
2013-06-23 23:50:00,94.0,-99.9,-100.00,NW,310,1.0,3.0,-999,-99.99,,,-99.99,,2013-06-24 05:50:00,